Mekhanik Kraskovsky — UFHZ — position and weather

sailwx.info

Track history (hours):
 
Tides and Currents Weather Stations Pressure Air Temp Water Temp Dewpoint Dewpoint Depression Visibility Wind Speed Wind Dir Waves Ship Positions

Mekhanik Kraskovsky

Last reported at 2018-Feb-19 23:30 UTC. Time now 2018-Feb-19 23:44 UTC.
Position N 62°30' E 005°07'.

Length 85 m; beam 15 m.

Type: Cargo ship. MMSI: 273116000.

Date/timePositionNaut miles runAvg speedWind from/ knotsBaromVisibWave heightAir tempDewpointWater temp
2018-Feb-19 23:30N 62°30' E 005°07'510.6
2018-Feb-19 23:00N 62°35' E 005°12'5 9.5
2018-Feb-19 22:30N 62°39' E 005°18'510.0
2018-Feb-19 22:00N 62°43' E 005°23'35210.2
2018-Feb-18 11:37N 67°50' E 012°17'110.1
2018-Feb-18 11:30N 67°51' E 012°18'510.2
2018-Feb-18 11:00N 67°55' E 012°26'510.5
2018-Feb-18 10:30N 67°59' E 012°34'5 9.7
2018-Feb-18 10:00N 68°03' E 012°41'5 9.9
2018-Feb-18 09:30N 68°07' E 012°49'510.2
2018-Feb-18 08:59N 68°11' E 012°57'510.4
2018-Feb-18 08:30N 68°16' E 013°06'510.1
2018-Feb-18 08:00N 68°20' E 013°14'510.2
2018-Feb-18 07:30N 68°24' E 013°22'510.2
2018-Feb-18 07:00N 68°28' E 013°31'510.4
2018-Feb-18 06:30N 68°32' E 013°40'510.6
2018-Feb-18 06:00N 68°36' E 013°49'510.4
2018-Feb-18 05:30N 68°40' E 013°57'510.1
2018-Feb-18 05:00N 68°44' E 014°06'510.3
2018-Feb-18 04:30N 68°48' E 014°15'510.3
2018-Feb-18 04:00N 68°52' E 014°23'5 9.7
2018-Feb-18 03:29N 68°56' E 014°32'5 9.5
2018-Feb-18 03:00N 68°59' E 014°42'510.0
2018-Feb-18 02:30N 69°03' E 014°51'510.0
2018-Feb-18 02:00N 69°06' E 015°01'5 9.6
2018-Feb-18 01:30N 69°10' E 015°11'5 9.7
2018-Feb-18 00:59N 69°13' E 015°21'5 9.9
2018-Feb-18 00:30N 69°16' E 015°30'5 9.5
2018-Feb-18 00:00N 69°20' E 015°40'5 9.4
2018-Feb-17 23:29N 69°23' E 015°49'4 8.5
2018-Feb-17 22:59N 69°26' E 015°58'4 8.7
2018-Feb-17 22:30N 69°29' E 016°07'5 9.5
2018-Feb-17 22:00N 69°32' E 016°17'5 9.5
2018-Feb-17 21:30N 69°36' E 016°27'5 9.4
2018-Feb-17 21:00N 69°39' E 016°36'510.1
2018-Feb-17 20:30N 69°42' E 016°46'510.3
2018-Feb-17 20:00N 69°46' E 016°57'510.6
2018-Feb-17 19:29N 69°50' E 017°08'510.5
2018-Feb-17 19:00N 69°53' E 017°19'510.2
2018-Feb-17 18:30N 69°57' E 017°30'510.2
2018-Feb-17 18:00N 70°00' E 017°41'510.4
2018-Feb-17 17:29N 70°04' E 017°53'510.1
2018-Feb-17 16:59N 70°08' E 018°03'510.4
2018-Feb-17 16:30N 70°11' E 018°14'510.2
2018-Feb-17 15:59N 70°15' E 018°25'510.5
2018-Feb-17 15:30N 70°18' E 018°37'510.9
2018-Feb-17 15:00N 70°20' E 018°51'510.4
2018-Feb-17 14:30N 70°23' E 019°04'510.1
2018-Feb-17 14:00N 70°25' E 019°18'5 9.7
2018-Feb-17 13:30N 70°28' E 019°30'5 9.1
2018-Feb-17 13:00N 70°30' E 019°42'5 9.7
2018-Feb-17 12:30N 70°33' E 019°55'5 9.5
2018-Feb-17 12:00N 70°35' E 020°07'5 9.7
2018-Feb-17 11:30N 70°37' E 020°20'5 9.4
2018-Feb-17 11:00N 70°39' E 020°32'2110.0
2018-Feb-17 08:51N 70°49' E 021°31'410.0
2018-Feb-17 08:29N 70°50' E 021°41'510.5
2018-Feb-17 08:00N 70°52' E 021°55'510.3
2018-Feb-17 07:30N 70°54' E 022°10'610.9
2018-Feb-17 06:59N 70°56' E 022°26'510.8
2018-Feb-17 06:29N 70°58' E 022°41'510.8
2018-Feb-17 06:00N 70°60' E 022°56'510.4
2018-Feb-17 05:30N 71°02' E 023°11'510.3
2018-Feb-17 05:00N 71°04' E 023°26'510.1
2018-Feb-17 04:30N 71°06' E 023°40'5 9.8
2018-Feb-17 04:00N 71°07' E 023°54'5 9.3
2018-Feb-17 03:30N 71°09' E 024°08'5 9.4
2018-Feb-17 03:00N 71°09' E 024°23'5 9.6
2018-Feb-17 02:30N 71°10' E 024°37'5 9.8
2018-Feb-17 02:00N 71°11' E 024°52'5 9.6
2018-Feb-17 01:30N 71°12' E 025°07'5 9.1
2018-Feb-17 01:00N 71°13' E 025°21'5 9.9
2018-Feb-17 00:30N 71°14' E 025°36'510.1
2018-Feb-17 00:00N 71°14' E 025°52'510.7
2018-Feb-16 23:30N 71°14' E 026°08'611.0
2018-Feb-16 22:59N 71°13' E 026°26'611.6
2018-Feb-16 22:30N 71°13' E 026°43'611.5
2018-Feb-16 22:00N 71°12' E 027°00'611.1
2018-Feb-16 21:30N 71°11' E 027°18'511.1
2018-Feb-16 21:00N 71°10' E 027°35'611.1
2018-Feb-16 20:28N 71°10' E 027°53'511.0
2018-Feb-16 19:59N 71°09' E 028°09'510.5
2018-Feb-16 19:29N 71°07' E 028°24'510.2
2018-Feb-16 18:58N 71°04' E 028°38'510.3
2018-Feb-16 18:30N 71°02' E 028°50'510.0
2018-Feb-16 18:00N 70°59' E 029°03'5 9.8
2018-Feb-16 17:30N 70°56' E 029°16'5 9.8
2018-Feb-16 16:59N 70°53' E 029°28'5 9.7
2018-Feb-16 16:30N 70°51' E 029°40'5 9.9
2018-Feb-16 16:00N 70°48' E 029°53'5 9.3
2018-Feb-16 15:30N 70°46' E 030°05'5 9.2
2018-Feb-16 15:00N 70°43' E 030°17'5 9.5
2018-Feb-16 14:30N 70°41' E 030°28'5 9.8
2018-Feb-16 14:00N 70°38' E 030°41'5 9.9
2018-Feb-16 13:30N 70°35' E 030°53'5 9.8
2018-Feb-16 13:00N 70°32' E 031°06'510.1
2018-Feb-16 12:29N 70°28' E 031°14'510.6
2018-Feb-16 12:00N 70°23' E 031°20'510.5
2018-Feb-16 11:29N 70°18' E 031°27'510.3
2018-Feb-16 11:00N 70°14' E 031°32'510.3
2018-Feb-16 10:30N 70°09' E 031°38'510.3
2018-Feb-16 09:59N 70°06' E 031°50'  
Track history (hours):
 
Tides and Currents Weather Stations Pressure Air Temp Water Temp Dewpoint Dewpoint Depression Visibility Wind Speed Wind Dir Waves Ship Positions

Mekhanik Kraskovsky

Last reported at 2018-Feb-19 23:30 UTC. Time now 2018-Feb-19 23:44 UTC.
Position N 62°30' E 005°07'.

Length 85 m; beam 15 m.

Type: Cargo ship. MMSI: 273116000.

Date/timePositionNaut miles runAvg speedWind from/ knotsBaromVisibWave heightAir tempDewpointWater temp
2018-Feb-19 23:30N 62°30' E 005°07'510.6
2018-Feb-19 23:00N 62°35' E 005°12'5 9.5
2018-Feb-19 22:30N 62°39' E 005°18'510.0
2018-Feb-19 22:00N 62°43' E 005°23'35210.2
2018-Feb-18 11:37N 67°50' E 012°17'110.1
2018-Feb-18 11:30N 67°51' E 012°18'510.2
2018-Feb-18 11:00N 67°55' E 012°26'510.5
2018-Feb-18 10:30N 67°59' E 012°34'5 9.7
2018-Feb-18 10:00N 68°03' E 012°41'5 9.9
2018-Feb-18 09:30N 68°07' E 012°49'510.2
2018-Feb-18 08:59N 68°11' E 012°57'510.4
2018-Feb-18 08:30N 68°16' E 013°06'510.1
2018-Feb-18 08:00N 68°20' E 013°14'510.2
2018-Feb-18 07:30N 68°24' E 013°22'510.2
2018-Feb-18 07:00N 68°28' E 013°31'510.4
2018-Feb-18 06:30N 68°32' E 013°40'510.6
2018-Feb-18 06:00N 68°36' E 013°49'510.4
2018-Feb-18 05:30N 68°40' E 013°57'510.1
2018-Feb-18 05:00N 68°44' E 014°06'510.3
2018-Feb-18 04:30N 68°48' E 014°15'510.3
2018-Feb-18 04:00N 68°52' E 014°23'5 9.7
2018-Feb-18 03:29N 68°56' E 014°32'5 9.5
2018-Feb-18 03:00N 68°59' E 014°42'510.0
2018-Feb-18 02:30N 69°03' E 014°51'510.0
2018-Feb-18 02:00N 69°06' E 015°01'5 9.6
2018-Feb-18 01:30N 69°10' E 015°11'5 9.7
2018-Feb-18 00:59N 69°13' E 015°21'5 9.9
2018-Feb-18 00:30N 69°16' E 015°30'5 9.5
2018-Feb-18 00:00N 69°20' E 015°40'5 9.4
2018-Feb-17 23:29N 69°23' E 015°49'4 8.5
2018-Feb-17 22:59N 69°26' E 015°58'4 8.7
2018-Feb-17 22:30N 69°29' E 016°07'5 9.5
2018-Feb-17 22:00N 69°32' E 016°17'5 9.5
2018-Feb-17 21:30N 69°36' E 016°27'5 9.4
2018-Feb-17 21:00N 69°39' E 016°36'510.1
2018-Feb-17 20:30N 69°42' E 016°46'510.3
2018-Feb-17 20:00N 69°46' E 016°57'510.6
2018-Feb-17 19:29N 69°50' E 017°08'510.5
2018-Feb-17 19:00N 69°53' E 017°19'510.2
2018-Feb-17 18:30N 69°57' E 017°30'510.2
2018-Feb-17 18:00N 70°00' E 017°41'510.4
2018-Feb-17 17:29N 70°04' E 017°53'510.1
2018-Feb-17 16:59N 70°08' E 018°03'510.4
2018-Feb-17 16:30N 70°11' E 018°14'510.2
2018-Feb-17 15:59N 70°15' E 018°25'510.5
2018-Feb-17 15:30N 70°18' E 018°37'510.9
2018-Feb-17 15:00N 70°20' E 018°51'510.4
2018-Feb-17 14:30N 70°23' E 019°04'510.1
2018-Feb-17 14:00N 70°25' E 019°18'5 9.7
2018-Feb-17 13:30N 70°28' E 019°30'5 9.1
2018-Feb-17 13:00N 70°30' E 019°42'5 9.7
2018-Feb-17 12:30N 70°33' E 019°55'5 9.5
2018-Feb-17 12:00N 70°35' E 020°07'5 9.7
2018-Feb-17 11:30N 70°37' E 020°20'5 9.4
2018-Feb-17 11:00N 70°39' E 020°32'2110.0
2018-Feb-17 08:51N 70°49' E 021°31'410.0
2018-Feb-17 08:29N 70°50' E 021°41'510.5
2018-Feb-17 08:00N 70°52' E 021°55'510.3
2018-Feb-17 07:30N 70°54' E 022°10'610.9
2018-Feb-17 06:59N 70°56' E 022°26'510.8
2018-Feb-17 06:29N 70°58' E 022°41'510.8
2018-Feb-17 06:00N 70°60' E 022°56'510.4
2018-Feb-17 05:30N 71°02' E 023°11'510.3
2018-Feb-17 05:00N 71°04' E 023°26'510.1
2018-Feb-17 04:30N 71°06' E 023°40'5 9.8
2018-Feb-17 04:00N 71°07' E 023°54'5 9.3
2018-Feb-17 03:30N 71°09' E 024°08'5 9.4
2018-Feb-17 03:00N 71°09' E 024°23'5 9.6
2018-Feb-17 02:30N 71°10' E 024°37'5 9.8
2018-Feb-17 02:00N 71°11' E 024°52'5 9.6
2018-Feb-17 01:30N 71°12' E 025°07'5 9.1
2018-Feb-17 01:00N 71°13' E 025°21'5 9.9
2018-Feb-17 00:30N 71°14' E 025°36'510.1
2018-Feb-17 00:00N 71°14' E 025°52'510.7
2018-Feb-16 23:30N 71°14' E 026°08'611.0
2018-Feb-16 22:59N 71°13' E 026°26'611.6
2018-Feb-16 22:30N 71°13' E 026°43'611.5
2018-Feb-16 22:00N 71°12' E 027°00'611.1
2018-Feb-16 21:30N 71°11' E 027°18'511.1
2018-Feb-16 21:00N 71°10' E 027°35'611.1
2018-Feb-16 20:28N 71°10' E 027°53'511.0
2018-Feb-16 19:59N 71°09' E 028°09'510.5
2018-Feb-16 19:29N 71°07' E 028°24'510.2
2018-Feb-16 18:58N 71°04' E 028°38'510.3
2018-Feb-16 18:30N 71°02' E 028°50'510.0
2018-Feb-16 18:00N 70°59' E 029°03'5 9.8
2018-Feb-16 17:30N 70°56' E 029°16'5 9.8
2018-Feb-16 16:59N 70°53' E 029°28'5 9.7
2018-Feb-16 16:30N 70°51' E 029°40'5 9.9
2018-Feb-16 16:00N 70°48' E 029°53'5 9.3
2018-Feb-16 15:30N 70°46' E 030°05'5 9.2
2018-Feb-16 15:00N 70°43' E 030°17'5 9.5
2018-Feb-16 14:30N 70°41' E 030°28'5 9.8
2018-Feb-16 14:00N 70°38' E 030°41'5 9.9
2018-Feb-16 13:30N 70°35' E 030°53'5 9.8
2018-Feb-16 13:00N 70°32' E 031°06'510.1
2018-Feb-16 12:29N 70°28' E 031°14'510.6
2018-Feb-16 12:00N 70°23' E 031°20'510.5
2018-Feb-16 11:29N 70°18' E 031°27'510.3
2018-Feb-16 11:00N 70°14' E 031°32'510.3
2018-Feb-16 10:30N 70°09' E 031°38'510.3
2018-Feb-16 09:59N 70°06' E 031°50'  

Dump ship's entire track history